Time;durP1;ratioP1;P1;durP2;ratioP2;P2;SDS_P1;SDS_P2;PMS_P1;PMS_P2;Temp;Humidity;BMP_temperature;BMP_pressure;BME280_temperature;BME280_humidity;BME280_pressure;Samples;Min_cycle;Max_cycle;Signal;HPM_P1;HPM_P2
2023/02/21 02:15:37;;;;;;;6.87;2.70;;;3.80;99.90;;;;;;5056913;28;20213;-58
2023/02/21 02:18:30;;;;;;;4.97;2.30;;;3.80;99.90;;;;;;5031498;28;20597;-58
2023/02/21 02:21:26;;;;;;;3.97;2.30;;;3.90;99.90;;;;;;5053397;28;20695;-58
2023/02/21 02:24:13;;;;;;;4.40;2.50;;;3.90;99.90;;;;;;5056017;28;20210;-57
2023/02/21 02:27:14;;;;;;;3.73;2.83;;;3.90;99.90;;;;;;5055989;28;20225;-58
2023/02/21 02:30:17;;;;;;;4.67;2.40;;;4.00;99.90;;;;;;5054922;28;20213;-58
2023/02/21 02:33:06;;;;;;;4.40;2.37;;;4.10;99.90;;;;;;5054840;28;20232;-57
2023/02/21 02:35:39;;;;;;;5.50;2.43;;;4.10;99.90;;;;;;5054648;28;20220;-57
2023/02/21 02:38:11;;;;;;;3.90;2.60;;;4.00;99.90;;;;;;5054717;28;20233;-57
2023/02/21 02:40:46;;;;;;;4.27;2.73;;;4.00;99.90;;;;;;5055086;28;20206;-57
2023/02/21 02:43:20;;;;;;;4.20;2.10;;;4.00;99.90;;;;;;5054823;28;20700;-59
2023/02/21 02:45:53;;;;;;;5.80;2.47;;;3.90;99.90;;;;;;5054653;28;20205;-58
2023/02/21 02:48:23;;;;;;;2.93;2.10;;;3.90;99.90;;;;;;5055349;28;20312;-58
2023/02/21 02:50:53;;;;;;;4.03;2.40;;;3.90;99.90;;;;;;5054288;28;20217;-58
2023/02/21 02:53:21;;;;;;;2.97;1.93;;;3.90;99.90;;;;;;5054822;28;20205;-58
2023/02/21 02:55:52;;;;;;;3.67;2.13;;;3.90;99.90;;;;;;5054876;28;20214;-58
2023/02/21 02:58:21;;;;;;;3.00;2.30;;;3.80;99.90;;;;;;5054267;28;20224;-58
2023/02/21 03:00:54;;;;;;;4.37;2.50;;;3.80;99.90;;;;;;5054926;28;20211;-58
2023/02/21 03:03:39;;;;;;;6.37;2.50;;;3.80;99.90;;;;;;5054482;28;20206;-58
2023/02/21 03:06:17;;;;;;;4.47;2.60;;;3.80;99.90;;;;;;5054266;28;20201;-58
2023/02/21 03:08:51;;;;;;;5.10;2.40;;;3.80;99.90;;;;;;5054564;28;20209;-58
2023/02/21 03:11:20;;;;;;;3.90;2.03;;;3.90;99.90;;;;;;5054009;28;20211;-59
2023/02/21 03:13:51;;;;;;;4.20;2.00;;;3.90;99.90;;;;;;5054286;28;20219;-61
2023/02/21 03:16:26;;;;;;;3.73;2.20;;;3.80;99.90;;;;;;5054398;28;20632;-58
2023/02/21 03:18:58;;;;;;;3.83;2.20;;;3.80;99.90;;;;;;5053841;28;20238;-58
2023/02/21 03:21:30;;;;;;;4.90;2.50;;;3.80;99.90;;;;;;5053382;28;20213;-58
2023/02/21 03:24:01;;;;;;;4.03;2.27;;;3.80;99.90;;;;;;5053807;28;20209;-58
2023/02/21 03:26:31;;;;;;;5.30;2.50;;;3.90;99.90;;;;;;5053604;28;20233;-59
2023/02/21 03:28:59;;;;;;;4.07;2.40;;;3.90;99.90;;;;;;5053486;28;20198;-59
2023/02/21 03:31:30;;;;;;;6.83;2.60;;;3.80;99.90;;;;;;5053253;28;20696;-58
2023/02/21 03:33:57;;;;;;;4.07;2.50;;;3.70;99.90;;;;;;5053585;28;20213;-58
2023/02/21 03:36:25;;;;;;;5.77;2.47;;;3.60;99.90;;;;;;5053513;28;20212;-59
2023/02/21 03:38:52;;;;;;;4.13;2.17;;;3.50;99.90;;;;;;5053191;28;20233;-58
2023/02/21 03:41:19;;;;;;;3.70;2.03;;;3.50;99.90;;;;;;5052944;28;20206;-58
2023/02/21 03:43:45;;;;;;;5.33;2.17;;;3.50;99.90;;;;;;5053365;28;20212;-57
2023/02/21 03:46:12;;;;;;;4.47;2.47;;;3.50;99.90;;;;;;5053048;28;20231;-58
2023/02/21 03:48:39;;;;;;;4.53;2.20;;;3.50;99.90;;;;;;5053511;28;20206;-57
2023/02/21 03:51:06;;;;;;;5.27;2.23;;;3.50;99.90;;;;;;5053611;28;20209;-58
2023/02/21 03:53:34;;;;;;;3.30;2.03;;;3.50;99.90;;;;;;5053239;28;20213;-57
2023/02/21 03:56:01;;;;;;;4.43;2.10;;;3.50;99.90;;;;;;5053678;28;20220;-58
2023/02/21 03:58:27;;;;;;;4.03;2.00;;;3.50;99.90;;;;;;5053140;28;20723;-57
2023/02/21 04:00:54;;;;;;;3.10;2.20;;;3.50;99.90;;;;;;5053040;28;20198;-58
2023/02/21 04:03:21;;;;;;;5.40;2.47;;;3.60;99.90;;;;;;5053320;28;20288;-58
2023/02/21 04:05:48;;;;;;;4.73;2.03;;;3.60;99.90;;;;;;5053545;28;20217;-58
2023/02/21 04:08:15;;;;;;;4.30;2.20;;;3.70;99.90;;;;;;5053796;28;20226;-58
2023/02/21 04:10:43;;;;;;;48.40;38.10;;;3.80;99.90;;;;;;5053185;28;20213;-58
2023/02/21 04:13:10;;;;;;;3.93;3.37;;;3.80;99.90;;;;;;5052980;28;20202;-58
2023/02/21 04:15:36;;;;;;;3.10;1.97;;;3.90;99.90;;;;;;5053183;28;20517;-58
2023/02/21 04:18:03;;;;;;;3.47;2.03;;;4.00;99.90;;;;;;5053057;28;20233;-58
2023/02/21 04:20:30;;;;;;;3.70;2.10;;;4.00;99.90;;;;;;5053093;28;20210;-58
2023/02/21 04:22:57;;;;;;;5.40;2.63;;;3.90;99.90;;;;;;5052699;28;20620;-58
2023/02/21 04:25:24;;;;;;;3.03;2.30;;;3.80;99.90;;;;;;5053159;28;20205;-58
2023/02/21 04:27:52;;;;;;;4.17;2.70;;;3.90;99.90;;;;;;5052651;28;20217;-57
2023/02/21 04:30:19;;;;;;;3.27;2.30;;;3.80;99.90;;;;;;5053071;28;20264;-57
2023/02/21 04:32:46;;;;;;;3.97;2.53;;;3.80;99.90;;;;;;5052679;28;20214;-57
2023/02/21 04:35:12;;;;;;;3.90;2.80;;;3.70;99.90;;;;;;5053147;28;20210;-57
2023/02/21 04:37:39;;;;;;;5.80;3.63;;;3.80;99.90;;;;;;5052765;28;20718;-58
2023/02/21 04:40:07;;;;;;;8.03;3.80;;;3.80;99.90;;;;;;5052675;28;20214;-58
2023/02/21 04:42:34;;;;;;;9.40;4.50;;;3.80;99.90;;;;;;5052045;28;20263;-58
2023/02/21 04:45:02;;;;;;;7.10;4.27;;;3.80;99.90;;;;;;5052785;28;20212;-58
2023/02/21 04:47:29;;;;;;;6.57;4.07;;;3.70;99.90;;;;;;5052310;28;20233;-58
2023/02/21 04:49:56;;;;;;;4.03;3.10;;;3.80;99.90;;;;;;5052292;28;20220;-58
2023/02/21 04:52:23;;;;;;;5.73;3.97;;;3.80;99.90;;;;;;5055625;28;20225;-57
2023/02/21 04:54:49;;;;;;;6.43;4.07;;;3.80;99.90;;;;;;5056341;28;20217;-58
2023/02/21 04:57:16;;;;;;;5.10;3.23;;;3.80;99.90;;;;;;5055960;28;20229;-58
2023/02/21 04:59:43;;;;;;;5.10;2.80;;;3.80;99.90;;;;;;5055931;28;20284;-57
2023/02/21 05:02:11;;;;;;;4.17;3.20;;;3.80;99.90;;;;;;5056150;28;20201;-58
2023/02/21 05:04:38;;;;;;;4.47;2.70;;;3.70;99.90;;;;;;5056189;28;20213;-59
2023/02/21 05:07:06;;;;;;;3.90;2.70;;;3.70;99.90;;;;;;5056252;28;20217;-58
2023/02/21 05:09:32;;;;;;;6.70;2.90;;;3.60;99.90;;;;;;5056064;28;20213;-58
2023/02/21 05:11:59;;;;;;;3.90;2.37;;;3.60;99.90;;;;;;5055565;28;20558;-58
2023/02/21 05:14:26;;;;;;;6.37;2.70;;;3.60;99.90;;;;;;5056026;28;20483;-57
2023/02/21 05:16:53;;;;;;;4.07;2.40;;;3.50;99.90;;;;;;5055977;28;20233;-58
2023/02/21 05:19:26;;;;;;;5.97;2.57;;;3.40;99.90;;;;;;5056244;28;20253;-57
2023/02/21 05:21:54;;;;;;;4.03;2.60;;;3.40;99.90;;;;;;5055647;28;20194;-59
2023/02/21 05:24:20;;;;;;;10.10;5.33;;;3.50;99.90;;;;;;5056034;28;20206;-57
2023/02/21 05:26:47;;;;;;;3.57;2.43;;;3.60;99.90;;;;;;5056093;28;20222;-59
2023/02/21 05:29:14;;;;;;;3.83;2.80;;;3.60;99.90;;;;;;5056249;28;20704;-58
2023/02/21 05:31:41;;;;;;;3.67;2.70;;;3.70;99.90;;;;;;5055552;28;20220;-60
2023/02/21 05:34:07;;;;;;;4.93;2.93;;;3.70;99.90;;;;;;5055807;28;20619;-58
2023/02/21 05:36:35;;;;;;;5.13;3.17;;;3.70;99.90;;;;;;5055995;28;20725;-59
2023/02/21 05:39:03;;;;;;;5.80;3.07;;;3.80;99.90;;;;;;5055847;28;20287;-58
2023/02/21 05:41:29;;;;;;;5.40;3.53;;;3.90;99.90;;;;;;5055743;28;20694;-58
2023/02/21 05:43:56;;;;;;;5.17;3.13;;;3.90;99.90;;;;;;5055362;28;20682;-58
2023/02/21 05:46:25;;;;;;;5.97;3.40;;;4.00;99.90;;;;;;5055512;28;20205;-58
2023/02/21 05:48:53;;;;;;;6.27;3.27;;;4.00;99.90;;;;;;5055614;28;20210;-58
2023/02/21 05:51:20;;;;;;;4.70;3.20;;;3.90;99.90;;;;;;5055681;28;20213;-57
2023/02/21 05:53:48;;;;;;;5.80;2.60;;;3.80;99.90;;;;;;5055679;28;20216;-57
2023/02/21 05:56:16;;;;;;;4.70;2.63;;;3.90;99.90;;;;;;5055295;28;20202;-57
2023/02/21 05:58:43;;;;;;;8.37;4.40;;;3.90;99.90;;;;;;5055606;28;20229;-58
2023/02/21 06:01:10;;;;;;;5.07;3.10;;;3.90;99.90;;;;;;5055269;28;20260;-57
2023/02/21 06:03:37;;;;;;;3.97;2.47;;;3.90;99.90;;;;;;5053970;28;20216;-58
2023/02/21 06:06:04;;;;;;;4.93;2.63;;;3.80;99.90;;;;;;5055149;28;20213;-59
2023/02/21 06:08:31;;;;;;;3.83;2.30;;;3.80;99.90;;;;;;5055144;28;20228;-58
2023/02/21 06:10:59;;;;;;;6.43;2.83;;;3.80;99.90;;;;;;5055368;28;20291;-59
2023/02/21 06:13:25;;;;;;;8.17;3.73;;;3.80;99.90;;;;;;5055558;28;20213;-58
2023/02/21 06:15:52;;;;;;;6.10;3.10;;;3.80;99.90;;;;;;5055555;28;20221;-57
2023/02/21 06:18:19;;;;;;;3.87;3.20;;;3.80;99.90;;;;;;5055339;28;20230;-58
2023/02/21 06:20:46;;;;;;;7.00;3.20;;;3.70;99.90;;;;;;5055640;28;20213;-58
2023/02/21 06:23:12;;;;;;;5.40;3.17;;;3.80;99.90;;;;;;5055399;28;20215;-58
2023/02/21 06:25:39;;;;;;;6.50;3.27;;;3.80;99.90;;;;;;5055354;28;20210;-58
2023/02/21 06:28:08;;;;;;;8.17;4.60;;;3.90;99.90;;;;;;5054896;28;20615;-59
2023/02/21 06:30:34;;;;;;;6.30;3.70;;;3.90;99.90;;;;;;5055253;28;20705;-59
2023/02/21 06:33:01;;;;;;;6.00;3.80;;;4.00;99.90;;;;;;5055407;28;20209;-59
2023/02/21 06:35:28;;;;;;;7.87;3.60;;;4.10;99.90;;;;;;5055351;28;20205;-58
2023/02/21 06:37:55;;;;;;;5.70;3.30;;;4.20;99.90;;;;;;5055257;28;20225;-58
2023/02/21 06:40:22;;;;;;;8.37;4.20;;;4.30;99.90;;;;;;5055127;28;20209;-59
2023/02/21 06:42:48;;;;;;;11.50;7.23;;;4.50;99.90;;;;;;5054749;28;20202;-59
2023/02/21 06:45:17;;;;;;;10.40;5.03;;;4.60;99.90;;;;;;5054772;28;20209;-58
2023/02/21 06:47:43;;;;;;;7.40;4.20;;;4.70;99.90;;;;;;5054626;28;20237;-59
2023/02/21 06:50:10;;;;;;;9.67;5.27;;;4.80;99.90;;;;;;5054364;28;20205;-58
2023/02/21 06:52:37;;;;;;;6.87;4.37;;;4.80;99.90;;;;;;5054321;28;20213;-59
2023/02/21 06:55:04;;;;;;;6.03;3.60;;;4.90;99.90;;;;;;5054235;28;20212;-59
2023/02/21 06:57:31;;;;;;;5.43;3.57;;;5.00;99.90;;;;;;5054360;28;20709;-59
2023/02/21 06:59:58;;;;;;;4.03;3.00;;;5.10;99.90;;;;;;5054558;28;20221;-59
2023/02/21 07:02:26;;;;;;;5.33;2.90;;;5.20;99.90;;;;;;5054356;28;20217;-59
2023/02/21 07:04:52;;;;;;;3.40;2.37;;;5.30;99.90;;;;;;5054027;28;20229;-58
2023/02/21 07:07:19;;;;;;;9.67;3.00;;;5.50;99.90;;;;;;5053797;28;20736;-58
2023/02/21 07:09:46;;;;;;;3.10;2.50;;;5.80;99.90;;;;;;5053982;28;20205;-59
2023/02/21 07:12:13;;;;;;;7.03;3.23;;;6.00;99.90;;;;;;5054110;28;20210;-59
2023/02/21 07:14:39;;;;;;;2.77;2.40;;;6.20;99.90;;;;;;5053826;28;20243;-59
2023/02/21 07:17:06;;;;;;;3.27;2.27;;;6.80;99.90;;;;;;5053729;28;20280;-59
2023/02/21 07:19:34;;;;;;;4.73;2.60;;;7.70;99.90;;;;;;5054224;28;20229;-59
2023/02/21 07:22:01;;;;;;;4.33;2.47;;;8.70;99.90;;;;;;5053576;28;20582;-59
2023/02/21 07:24:27;;;;;;;4.80;2.50;;;9.60;99.90;;;;;;5053642;28;20213;-59
2023/02/21 07:26:55;;;;;;;3.50;2.50;;;10.40;99.90;;;;;;5053876;28;20235;-59
2023/02/21 07:29:21;;;;;;;3.37;2.73;;;10.80;99.90;;;;;;5053471;28;20661;-60
2023/02/21 07:31:48;;;;;;;6.70;2.93;;;11.10;99.90;;;;;;5053331;28;20235;-60
2023/02/21 07:34:15;;;;;;;6.43;2.63;;;10.80;99.90;;;;;;5053732;28;20217;-59
2023/02/21 07:36:43;;;;;;;7.57;2.70;;;10.10;99.90;;;;;;5053752;28;20225;-59
2023/02/21 07:39:10;;;;;;;6.30;2.53;;;9.30;99.90;;;;;;5054097;28;20598;-59
2023/02/21 07:41:37;;;;;;;6.80;2.60;;;8.70;99.90;;;;;;5053811;28;20220;-59
2023/02/21 07:44:04;;;;;;;7.27;3.20;;;8.20;99.90;;;;;;5053604;28;20209;-59
2023/02/21 07:46:31;;;;;;;4.33;2.80;;;7.70;99.90;;;;;;5053284;28;20253;-59
2023/02/21 07:48:57;;;;;;;4.83;3.20;;;7.30;99.90;;;;;;5053189;28;20285;-59
2023/02/21 07:51:28;;;;;;;4.33;2.83;;;7.10;99.90;;;;;;5053625;28;20208;-59
2023/02/21 07:53:56;;;;;;;8.43;3.13;;;6.90;99.90;;;;;;5053249;28;20255;-59
2023/02/21 07:56:23;;;;;;;4.93;2.80;;;6.80;99.90;;;;;;5053705;28;20206;-59
2023/02/21 07:58:50;;;;;;;5.63;3.47;;;6.70;99.90;;;;;;5052827;28;20221;-59
2023/02/21 08:01:17;;;;;;;7.57;3.60;;;6.70;99.90;;;;;;5052927;28;20206;-59
2023/02/21 08:03:44;;;;;;;5.20;3.33;;;6.60;99.90;;;;;;5052258;28;20583;-58
2023/02/21 08:06:11;;;;;;;6.27;2.97;;;6.70;99.90;;;;;;5052422;28;20540;-60
2023/02/21 08:08:38;;;;;;;6.70;3.97;;;6.80;99.90;;;;;;5052776;28;20252;-59
2023/02/21 08:11:06;;;;;;;4.30;3.20;;;6.90;99.90;;;;;;5052835;28;20209;-59
2023/02/21 08:13:33;;;;;;;8.30;3.83;;;7.10;99.90;;;;;;5052338;28;20666;-59
2023/02/21 08:16:00;;;;;;;5.70;3.53;;;7.20;99.90;;;;;;5052681;28;20213;-60
2023/02/21 08:18:26;;;;;;;5.07;3.10;;;7.30;99.90;;;;;;5052540;28;20229;-59
2023/02/21 08:20:55;;;;;;;3.77;3.10;;;7.40;99.90;;;;;;5052405;28;20688;-60
2023/02/21 08:23:23;;;;;;;7.60;3.50;;;7.60;99.90;;;;;;5051906;28;20202;-60
2023/02/21 08:25:50;;;;;;;5.73;3.47;;;7.70;99.90;;;;;;5053140;28;20209;-59
2023/02/21 08:28:18;;;;;;;9.03;3.57;;;7.90;99.90;;;;;;5056121;28;20232;-58
2023/02/21 08:30:45;;;;;;;4.93;3.07;;;8.00;99.90;;;;;;5056508;28;20201;-61
2023/02/21 08:33:11;;;;;;;5.13;3.13;;;8.20;99.90;;;;;;5056795;28;20697;-69
2023/02/21 08:35:38;;;;;;;8.73;3.37;;;8.40;99.90;;;;;;5056446;28;20197;-59
2023/02/21 08:38:05;;;;;;;6.17;3.67;;;8.50;99.90;;;;;;5056195;28;20232;-58
2023/02/21 08:40:32;;;;;;;7.23;3.47;;;8.70;99.90;;;;;;5056561;28;20251;-58
2023/02/21 08:43:00;;;;;;;8.27;4.10;;;8.80;99.90;;;;;;5055716;28;20205;-58
2023/02/21 08:45:29;;;;;;;6.30;3.80;;;8.90;99.90;;;;;;5056013;28;20209;-58
2023/02/21 08:47:57;;;;;;;8.17;3.90;;;8.90;99.90;;;;;;5067901;22;20273;-66
2023/02/21 08:50:25;;;;;;;5.03;3.30;;;8.90;99.90;;;;;;5027529;28;20194;-67
2023/02/21 08:52:52;;;;;;;7.80;3.40;;;9.00;99.90;;;;;;5035535;28;20210;-64
2023/02/21 08:55:19;;;;;;;5.50;3.20;;;9.20;99.90;;;;;;5035848;28;20215;-65
2023/02/21 08:57:49;;;;;;;5.63;3.10;;;9.40;99.90;;;;;;5044052;28;20229;-65
2023/02/21 09:00:17;;;;;;;5.73;3.10;;;9.60;99.90;;;;;;5055681;28;20312;-65
2023/02/21 09:02:45;;;;;;;4.30;2.60;;;9.80;99.90;;;;;;5055438;28;20217;-65
2023/02/21 09:05:15;;;;;;;4.23;2.60;;;10.00;99.90;;;;;;5055711;28;20498;-63
2023/02/21 09:07:42;;;;;;;6.33;2.57;;;10.00;99.90;;;;;;5055385;28;20229;-65
2023/02/21 09:10:10;;;;;;;3.13;2.50;;;10.20;99.90;;;;;;5055386;28;20198;-66
2023/02/21 09:12:37;;;;;;;4.93;2.63;;;10.30;99.90;;;;;;5055561;28;20212;-64
2023/02/21 09:15:05;;;;;;;3.57;2.53;;;10.40;99.90;;;;;;5055070;28;20255;-65
2023/02/21 09:17:32;;;;;;;5.33;2.50;;;10.60;99.90;;;;;;5054825;28;20237;-64
2023/02/21 09:20:01;;;;;;;3.20;2.53;;;10.70;99.90;;;;;;5055047;28;20228;-64
2023/02/21 09:22:28;;;;;;;3.40;2.37;;;10.90;99.90;;;;;;5054870;28;20232;-64
2023/02/21 09:24:54;;;;;;;3.73;2.40;;;11.10;99.90;;;;;;5054927;28;20711;-64
2023/02/21 09:27:35;;;;;;;4.70;2.33;;;11.20;99.90;;;;;;5055037;28;20256;-65
2023/02/21 09:30:03;;;;;;;4.57;2.30;;;11.30;99.90;;;;;;5054766;28;20210;-65
2023/02/21 09:32:29;;;;;;;2.97;2.10;;;11.50;99.90;;;;;;5054797;28;20206;-65
2023/02/21 09:34:56;;;;;;;3.77;1.90;;;11.60;99.90;;;;;;5054861;28;20217;-65
2023/02/21 09:37:24;;;;;;;5.07;2.80;;;11.70;99.90;;;;;;5054523;28;20225;-65
2023/02/21 09:39:51;;;;;;;5.30;2.10;;;11.90;99.90;;;;;;5054621;28;20596;-65
2023/02/21 09:42:19;;;;;;;4.20;1.90;;;12.00;99.90;;;;;;5054169;28;20206;-65
2023/02/21 09:44:47;;;;;;;7.67;2.30;;;12.10;99.90;;;;;;5054451;28;20206;-65
2023/02/21 09:47:19;;;;;;;6.30;3.10;;;12.30;99.90;;;;;;5054417;28;20307;-65
2023/02/21 09:49:47;;;;;;;4.63;2.70;;;12.40;99.90;;;;;;5054461;28;20202;-65
2023/02/21 09:52:21;;;;;;;3.97;2.50;;;12.30;99.90;;;;;;5054646;28;20217;-64
2023/02/21 09:54:56;;;;;;;8.33;2.90;;;12.40;99.90;;;;;;5054965;28;20205;-65
2023/02/21 09:57:23;;;;;;;4.77;2.80;;;12.50;99.90;;;;;;5054586;28;20233;-65
2023/02/21 09:59:50;;;;;;;5.03;2.60;;;12.60;99.90;;;;;;5054408;28;20226;-65
2023/02/21 10:02:37;;;;;;;5.07;3.03;;;12.80;99.90;;;;;;5054306;28;20206;-64
2023/02/21 10:05:14;;;;;;;5.17;2.70;;;13.00;99.90;;;;;;5054029;28;20579;-65
2023/02/21 10:07:48;;;;;;;8.57;3.17;;;13.20;99.90;;;;;;5053894;28;20241;-64
2023/02/21 10:10:21;;;;;;;5.97;3.23;;;13.30;99.90;;;;;;5054094;28;20206;-65
2023/02/21 10:12:55;;;;;;;4.97;3.00;;;13.30;99.90;;;;;;5054031;28;20205;-63
2023/02/21 10:15:39;;;;;;;6.00;3.40;;;13.20;99.90;;;;;;5053995;28;20212;-64
2023/02/21 10:18:19;;;;;;;5.67;3.40;;;13.20;99.90;;;;;;5053620;28;20229;-65
2023/02/21 10:20:51;;;;;;;8.47;4.07;;;13.30;99.90;;;;;;5053727;28;20248;-64
2023/02/21 10:23:22;;;;;;;5.93;3.57;;;13.50;99.90;;;;;;5053517;28;20803;-64
2023/02/21 10:25:55;;;;;;;8.10;3.77;;;13.70;99.90;;;;;;5054002;28;20564;-65
2023/02/21 10:28:24;;;;;;;7.33;4.00;;;13.80;99.90;;;;;;5053508;28;20230;-63
2023/02/21 10:30:54;;;;;;;7.13;4.30;;;13.90;99.90;;;;;;5054594;28;20209;-64
2023/02/21 10:33:21;;;;;;;6.90;4.10;;;13.90;99.90;;;;;;5053987;28;20259;-65
2023/02/21 10:35:48;;;;;;;6.43;4.20;;;13.90;99.90;;;;;;5053417;28;20212;-65
2023/02/21 10:38:20;;;;;;;6.80;4.20;;;13.80;99.90;;;;;;5053354;28;20232;-64
2023/02/21 10:40:51;;;;;;;8.97;4.30;;;13.80;99.90;;;;;;5053293;28;20230;-65
2023/02/21 10:43:22;;;;;;;7.40;4.60;;;13.90;99.90;;;;;;5053042;28;20241;-65
2023/02/21 10:45:53;;;;;;;7.80;3.93;;;13.90;99.90;;;;;;5053025;28;20213;-63
2023/02/21 10:48:24;;;;;;;6.03;3.97;;;14.10;99.90;;;;;;5052557;28;20276;-65
2023/02/21 10:50:53;;;;;;;6.93;4.70;;;14.30;99.90;;;;;;5053286;28;20209;-64
2023/02/21 10:53:29;;;;;;;6.50;3.57;;;14.50;99.90;;;;;;5052848;28;20205;-63
2023/02/21 10:56:35;;;;;;;7.00;4.00;;;14.50;99.90;;;;;;5033475;28;20930;-67
2023/02/21 10:59:05;;;;;;;7.33;3.90;;;14.50;99.90;;;;;;5023453;28;20222;-64
2023/02/21 11:01:38;;;;;;;7.43;4.27;;;14.50;99.90;;;;;;5035947;28;20206;-62
2023/02/21 11:04:06;;;;;;;6.30;3.90;;;14.40;99.90;;;;;;5032977;28;20666;-64
2023/02/21 11:06:37;;;;;;;7.50;4.10;;;14.40;99.90;;;;;;5034836;28;20268;-64
2023/02/21 11:09:30;;;;;;;5.40;3.50;;;14.40;99.90;;;;;;5034405;28;20667;-67
2023/02/21 11:12:02;;;;;;;9.13;4.13;;;14.60;99.90;;;;;;5033589;28;20298;-63
2023/02/21 11:14:32;;;;;;;6.70;4.13;;;14.70;99.90;;;;;;5033301;28;20237;-65
2023/02/21 11:17:17;;;;;;;5.73;3.60;;;14.90;99.90;;;;;;5033382;28;20216;-65
2023/02/21 11:19:47;;;;;;;7.10;3.77;;;15.10;99.90;;;;;;5035250;28;20596;-63
2023/02/21 11:22:15;;;;;;;8.35;3.85;;;15.00;99.90;;;;;;5035737;28;20297;-64
2023/02/21 11:24:49;;;;;;;6.30;3.60;;;15.20;99.90;;;;;;5034202;28;20236;-64
2023/02/21 11:27:16;;;;;;;8.00;4.00;;;15.20;99.90;;;;;;5034320;28;20602;-64
2023/02/21 11:29:48;;;;;;;5.50;3.57;;;15.40;99.90;;;;;;5037640;28;20198;-65
2023/02/21 11:32:23;;;;;;;5.93;3.57;;;15.50;99.90;;;;;;5034686;28;20685;-63
2023/02/21 11:34:51;;;;;;;5.43;3.90;;;15.40;99.90;;;;;;5034178;28;20205;-63
2023/02/21 11:37:18;;;;;;;7.20;3.40;;;15.40;99.90;;;;;;5036101;28;20226;-63
2023/02/21 11:39:50;;;;;;;5.37;3.10;;;15.40;99.90;;;;;;5033495;28;20234;-63
2023/02/21 11:42:27;;;;;;;5.53;3.33;;;15.60;99.90;;;;;;5032886;28;20210;-64
2023/02/21 11:45:14;;;;;;;5.30;3.50;;;15.70;99.90;;;;;;5032121;28;20285;-65
2023/02/21 11:47:46;;;;;;;4.50;3.37;;;15.80;99.90;;;;;;5031737;28;20412;-65
2023/02/21 11:50:24;;;;;;;5.53;3.53;;;15.90;99.90;;;;;;5032309;28;20293;-63
2023/02/21 11:52:59;;;;;;;6.37;3.13;;;16.00;99.90;;;;;;5031878;28;20300;-65
2023/02/21 11:55:27;;;;;;;4.17;2.90;;;16.20;99.90;;;;;;5032057;28;20213;-64
2023/02/21 11:58:05;;;;;;;6.55;3.50;;;16.30;99.90;;;;;;5031804;28;20701;-64
2023/02/21 12:00:42;;;;;;;6.63;2.60;;;16.30;99.90;;;;;;5031254;28;20234;-63
2023/02/21 12:03:29;;;;;;;5.38;2.40;;;16.50;99.80;;;;;;5031752;28;20220;-63
2023/02/21 12:06:02;;;;;;;4.43;2.90;;;16.50;99.50;;;;;;5031903;28;20264;-64
2023/02/21 12:08:40;;;;;;;5.43;2.85;;;16.50;99.40;;;;;;5031672;28;20226;-64
2023/02/21 12:11:38;;;;;;;5.07;2.70;;;16.70;99.10;;;;;;5031990;28;20301;-64
2023/02/21 12:14:15;;;;;;;5.53;2.73;;;16.70;98.60;;;;;;5020995;28;20209;-64
2023/02/21 12:16:54;;;;;;;4.30;2.67;;;16.80;98.80;;;;;;5031642;28;20209;-64
2023/02/21 12:19:42;;;;;;;5.90;2.80;;;16.90;98.70;;;;;;5031903;28;20210;-65
2023/02/21 12:22:23;;;;;;;5.25;2.55;;;17.10;98.60;;;;;;5031511;28;20210;-65
2023/02/21 12:25:02;;;;;;;5.40;2.67;;;17.20;97.70;;;;;;5031796;28;20206;-65
2023/02/21 12:27:38;;;;;;;5.13;2.70;;;17.30;97.60;;;;;;5031650;28;20230;-65
2023/02/21 12:30:25;;;;;;;4.70;2.63;;;17.20;97.50;;;;;;5031771;28;20697;-65
2023/02/21 12:33:03;;;;;;;5.88;3.00;;;17.20;97.20;;;;;;5031619;28;20202;-64
2023/02/21 12:35:47;;;;;;;4.40;2.72;;;17.30;97.30;;;;;;5031696;28;20591;-63
2023/02/21 12:38:22;;;;;;;3.60;2.47;;;17.40;97.40;;;;;;5031712;28;20222;-64
2023/02/21 12:40:57;;;;;;;5.00;2.92;;;17.30;97.10;;;;;;5032489;28;20700;-64
2023/02/21 12:43:37;;;;;;;5.60;2.67;;;17.40;97.20;;;;;;5032079;28;20568;-65
2023/02/21 12:46:12;;;;;;;4.93;2.58;;;17.60;97.00;;;;;;5031801;28;20202;-65
2023/02/21 12:48:46;;;;;;;4.35;2.28;;;17.80;96.40;;;;;;5032176;28;20364;-65
2023/02/21 12:51:17;;;;;;;4.10;2.15;;;17.80;96.30;;;;;;5031873;28;20646;-64
2023/02/21 12:53:49;;;;;;;3.95;2.50;;;17.80;96.40;;;;;;5033082;28;20261;-65
2023/02/21 12:56:24;;;;;;;4.03;2.78;;;17.80;96.10;;;;;;5032952;28;20206;-65
2023/02/21 12:58:55;;;;;;;7.97;3.00;;;17.90;96.20;;;;;;5033133;28;20420;-64
2023/02/21 13:01:28;;;;;;;4.90;2.70;;;18.00;96.20;;;;;;5032247;28;20222;-64
2023/02/21 13:04:06;;;;;;;4.45;2.45;;;18.20;96.00;;;;;;5032211;28;20260;-64
2023/02/21 13:06:36;;;;;;;4.50;2.30;;;18.30;95.70;;;;;;5032945;28;20213;-65
2023/02/21 13:09:12;;;;;;;7.55;2.40;;;18.40;95.60;;;;;;5031623;28;20226;-65
2023/02/21 13:11:43;;;;;;;4.57;2.03;;;18.30;95.50;;;;;;5032163;28;20260;-65
2023/02/21 13:14:12;;;;;;;4.82;2.17;;;18.40;95.60;;;;;;5035275;28;20216;-65
2023/02/21 13:16:39;;;;;;;3.55;2.08;;;18.40;95.40;;;;;;5035310;28;20260;-65
2023/02/21 13:19:11;;;;;;;6.95;2.30;;;18.40;95.30;;;;;;5035424;28;20226;-65
2023/02/21 13:21:58;;;;;;;6.93;1.80;;;18.40;95.10;;;;;;5035231;28;20234;-64
2023/02/21 13:24:33;;;;;;;3.80;1.95;;;18.30;95.10;;;;;;5034995;28;20267;-65
2023/02/21 13:27:31;;;;;;;3.55;2.00;;;18.20;95.10;;;;;;5034859;28;20206;-65
2023/02/21 13:30:03;;;;;;;4.88;2.22;;;18.10;95.30;;;;;;5035082;28;20210;-64
2023/02/21 13:32:38;;;;;;;3.40;1.85;;;18.10;95.50;;;;;;5035054;28;20213;-64
2023/02/21 13:35:09;;;;;;;3.08;2.00;;;18.10;95.70;;;;;;5034926;28;20273;-63
2023/02/21 13:37:46;;;;;;;3.78;2.10;;;18.20;95.90;;;;;;5034923;28;20226;-64
2023/02/21 13:40:22;;;;;;;4.07;1.90;;;18.20;95.80;;;;;;5034661;28;20329;-65
2023/02/21 13:43:03;;;;;;;3.60;1.60;;;18.30;95.50;;;;;;5036548;28;20214;-66
2023/02/21 13:45:30;;;;;;;5.40;1.70;;;18.40;95.20;;;;;;5035184;28;20241;-64
2023/02/21 13:48:28;;;;;;;3.85;1.85;;;18.50;94.90;;;;;;5034684;28;20244;-64
2023/02/21 13:50:57;;;;;;;3.33;1.80;;;18.40;94.60;;;;;;5035206;28;20212;-64
2023/02/21 13:53:32;;;;;;;4.00;1.70;;;18.30;95.40;;;;;;5034464;28;20202;-64
2023/02/21 13:56:17;;;;;;;2.95;1.50;;;18.30;94.90;;;;;;5034849;28;20221;-65
2023/02/21 13:58:44;;;;;;;6.05;1.80;;;18.30;94.80;;;;;;5035104;28;20238;-64
2023/02/21 14:01:50;;;;;;;6.93;1.45;;;18.40;94.90;;;;;;5035222;28;20229;-65
2023/02/21 14:05:00;;;;;;;15.68;2.42;;;18.30;94.90;;;;;;5034526;28;20256;-65
2023/02/21 14:07:55;;;;;;;3.15;1.40;;;18.40;94.60;;;;;;5035679;28;20316;-64
2023/02/21 14:10:30;;;;;;;3.15;1.50;;;18.60;94.50;;;;;;5034213;28;20292;-65
2023/02/21 14:12:59;;;;;;;4.85;1.58;;;18.70;94.30;;;;;;5036616;28;20209;-65
2023/02/21 14:15:41;;;;;;;6.45;1.58;;;18.80;94.20;;;;;;5037302;28;20245;-65
2023/02/21 14:18:16;;;;;;;4.35;1.55;;;18.90;94.40;;;;;;5035957;28;20294;-65
2023/02/21 14:20:48;;;;;;;4.18;1.70;;;18.80;94.20;;;;;;5035576;28;20236;-65
2023/02/21 14:23:17;;;;;;;5.93;1.50;;;19.00;94.50;;;;;;5034153;28;20238;-64
2023/02/21 14:25:55;;;;;;;3.78;1.33;;;19.60;94.10;;;;;;5034941;28;20673;-65
2023/02/21 14:28:56;;;;;;;2.25;1.50;;;20.40;93.10;;;;;;5034940;28;20289;-65
2023/02/21 14:31:52;;;;;;;3.05;1.40;;;20.70;92.40;;;;;;5032598;28;20215;-65
2023/02/21 14:34:24;;;;;;;2.00;1.55;;;20.60;92.00;;;;;;5033818;28;20670;-65
2023/02/21 14:36:53;;;;;;;5.80;1.73;;;20.40;92.30;;;;;;5034742;28;20297;-65
2023/02/21 14:39:23;;;;;;;3.33;1.85;;;20.10;92.30;;;;;;5035132;28;20292;-65
2023/02/21 14:42:22;;;;;;;3.15;1.65;;;19.70;92.60;;;;;;5035276;28;20699;-65
2023/02/21 14:45:13;;;;;;;2.67;1.63;;;20.00;92.80;;;;;;5037768;28;20210;-65
2023/02/21 14:48:13;;;;;;;2.50;1.40;;;20.80;91.30;;;;;;5032015;28;20257;-67
2023/02/21 14:50:56;;;;;;;3.70;1.85;;;20.90;90.80;;;;;;5034951;28;20643;-67
2023/02/21 14:53:45;;;;;;;4.10;1.73;;;20.30;91.40;;;;;;5034771;28;20638;-66
2023/02/21 14:56:34;;;;;;;5.55;1.63;;;19.80;92.00;;;;;;5034552;28;20206;-66
2023/02/21 14:59:33;;;;;;;3.72;1.75;;;19.40;92.20;;;;;;5033644;28;20234;-66
2023/02/21 15:02:14;;;;;;;2.85;1.70;;;19.10;92.70;;;;;;5026183;28;20230;-67
2023/02/21 15:04:46;;;;;;;3.03;1.65;;;18.80;93.10;;;;;;5036661;28;20210;-65
2023/02/21 15:07:18;;;;;;;3.00;1.70;;;18.60;93.30;;;;;;5038192;28;20635;-66
2023/02/21 15:09:45;;;;;;;4.00;1.90;;;18.50;93.60;;;;;;5035364;28;20206;-67
2023/02/21 15:12:17;;;;;;;3.70;1.70;;;18.40;93.80;;;;;;5036033;28;20206;-66
2023/02/21 15:14:49;;;;;;;4.45;1.60;;;18.40;93.90;;;;;;5032971;28;20202;-66
2023/02/21 15:17:20;;;;;;;2.33;1.52;;;18.40;93.80;;;;;;5032553;28;20318;-66
2023/02/21 15:20:00;;;;;;;4.72;1.60;;;18.40;93.80;;;;;;5032761;28;20241;-67
2023/02/21 15:22:28;;;;;;;2.47;1.50;;;18.30;93.90;;;;;;5032471;28;20705;-67
2023/02/21 15:25:15;;;;;;;2.47;1.50;;;18.20;94.00;;;;;;5033225;28;20313;-67
2023/02/21 15:27:59;;;;;;;3.45;1.65;;;18.20;94.10;;;;;;5032652;28;20346;-66
2023/02/21 15:30:28;;;;;;;3.08;1.88;;;18.00;94.00;;;;;;5032393;28;20241;-67
2023/02/21 15:32:59;;;;;;;5.65;1.63;;;17.90;94.10;;;;;;5032130;28;20217;-67